createdAt,value
2023-05-12T00:01:14.244Z,13.10
2023-05-12T00:03:41.686Z,13.10
2023-05-12T00:06:08.516Z,13.10
2023-05-12T00:08:35.211Z,13.00
2023-05-12T00:11:02.268Z,13.00
2023-05-12T00:13:29.070Z,13.00
2023-05-12T00:15:58.658Z,13.10
2023-05-12T00:18:26.417Z,12.90
2023-05-12T00:20:54.617Z,12.90
2023-05-12T00:23:22.525Z,12.90
2023-05-12T00:25:49.908Z,12.80
2023-05-12T00:28:18.231Z,12.70
2023-05-12T00:30:45.017Z,12.80
2023-05-12T00:33:11.720Z,12.90
2023-05-12T00:35:38.368Z,12.90
2023-05-12T00:38:05.012Z,12.90
2023-05-12T00:40:31.685Z,12.90
2023-05-12T00:42:58.446Z,12.80
2023-05-12T00:45:25.146Z,12.70
2023-05-12T00:47:53.376Z,12.70
2023-05-12T00:50:21.300Z,12.60
2023-05-12T00:52:49.137Z,12.60
2023-05-12T00:55:16.128Z,12.60
2023-05-12T00:57:43.814Z,12.60
2023-05-12T01:00:12.123Z,12.60
2023-05-12T01:02:41.097Z,12.50
2023-05-12T01:05:09.826Z,12.60
2023-05-12T01:07:39.554Z,12.60
2023-05-12T01:10:21.896Z,12.50
2023-05-12T01:12:49.066Z,12.50
2023-05-12T01:15:18.367Z,12.50
2023-05-12T01:17:53.188Z,12.50
2023-05-12T01:20:23.373Z,12.50
2023-05-12T01:22:50.238Z,12.50
2023-05-12T01:25:19.189Z,12.50
2023-05-12T01:27:46.612Z,12.50
2023-05-12T01:30:18.306Z,12.50
2023-05-12T01:32:45.452Z,12.50
2023-05-12T01:35:12.653Z,12.50
2023-05-12T01:37:46.288Z,12.50
2023-05-12T01:40:13.648Z,12.50
2023-05-12T01:42:42.239Z,12.50
2023-05-12T01:45:10.859Z,12.50
2023-05-12T01:47:38.173Z,12.50
2023-05-12T01:50:09.393Z,12.50
2023-05-12T01:52:36.823Z,12.50
2023-05-12T01:55:07.120Z,12.50
2023-05-12T01:57:39.262Z,12.50
2023-05-12T02:00:06.832Z,12.50
2023-05-12T02:02:42.771Z,12.50
2023-05-12T02:05:11.050Z,12.50
2023-05-12T02:07:37.890Z,12.40
2023-05-12T02:10:05.417Z,12.40
2023-05-12T02:12:34.429Z,12.40
2023-05-12T02:15:02.146Z,12.40
2023-05-12T02:17:30.651Z,12.40
2023-05-12T02:20:00.941Z,12.50
2023-05-12T02:22:27.757Z,12.50
2023-05-12T02:24:54.550Z,12.50
2023-05-12T02:27:21.293Z,12.50
2023-05-12T02:29:48.042Z,12.50
2023-05-12T02:32:16.002Z,12.60
2023-05-12T02:34:47.192Z,12.60
2023-05-12T02:37:14.558Z,12.60
2023-05-12T02:39:41.852Z,12.60
2023-05-12T02:42:08.514Z,12.60
2023-05-12T02:44:35.942Z,12.70
2023-05-12T02:47:02.781Z,12.70
2023-05-12T02:49:29.482Z,12.70
2023-05-12T02:51:56.494Z,12.60
2023-05-12T02:54:23.282Z,12.60
2023-05-12T02:56:49.994Z,12.70
2023-05-12T02:59:16.710Z,12.70
2023-05-12T03:01:43.461Z,12.60
2023-05-12T03:04:10.194Z,12.50
2023-05-12T03:06:37.033Z,12.50
2023-05-12T03:09:03.828Z,12.50
2023-05-12T03:11:30.869Z,12.50
2023-05-12T03:13:57.696Z,12.50
2023-05-12T03:16:24.387Z,12.50
2023-05-12T03:18:51.263Z,12.40
2023-05-12T03:21:17.994Z,12.40
2023-05-12T03:23:44.602Z,12.50
2023-05-12T03:26:11.392Z,12.50
2023-05-12T03:28:38.381Z,12.50
2023-05-12T03:31:05.155Z,12.50
2023-05-12T03:33:31.830Z,12.50
2023-05-12T03:35:58.662Z,12.40
2023-05-12T03:38:26.237Z,12.40
2023-05-12T03:41:06.552Z,12.50
2023-05-12T03:43:34.599Z,12.50
2023-05-12T03:46:01.824Z,12.60
2023-05-12T03:48:28.943Z,12.60
2023-05-12T03:50:56.422Z,12.60
2023-05-12T03:53:23.115Z,12.60
2023-05-12T03:55:51.117Z,12.50
2023-05-12T03:58:18.240Z,12.60
2023-05-12T04:00:46.644Z,12.50
2023-05-12T04:03:13.499Z,12.50
2023-05-12T04:05:41.002Z,12.50
2023-05-12T04:08:07.730Z,12.50
2023-05-12T04:10:42.163Z,12.50
2023-05-12T04:13:08.948Z,12.50
2023-05-12T04:15:36.009Z,12.50
2023-05-12T04:18:03.804Z,12.60
2023-05-12T04:20:30.516Z,12.50
2023-05-12T04:22:57.201Z,12.50
2023-05-12T04:25:23.993Z,12.50
2023-05-12T04:27:50.623Z,12.50
2023-05-12T04:30:19.725Z,12.50
2023-05-12T04:32:46.746Z,12.50
2023-05-12T04:35:13.567Z,12.50
2023-05-12T04:37:40.757Z,12.50
2023-05-12T04:40:09.023Z,12.60
2023-05-12T04:42:36.187Z,12.60
2023-05-12T04:45:03.292Z,12.70
2023-05-12T04:47:30.186Z,12.60
2023-05-12T04:49:56.855Z,12.60
2023-05-12T04:52:24.887Z,12.70
2023-05-12T04:54:52.068Z,12.70
2023-05-12T04:57:18.743Z,12.80
2023-05-12T04:59:45.558Z,12.70
2023-05-12T05:02:13.890Z,12.70
2023-05-12T05:04:40.762Z,12.70
2023-05-12T05:07:08.046Z,12.90
2023-05-12T05:09:36.423Z,12.80
2023-05-12T05:12:03.632Z,12.70
2023-05-12T05:14:30.540Z,12.70
2023-05-12T05:16:57.841Z,12.70
2023-05-12T05:19:35.280Z,12.80
2023-05-12T05:22:12.098Z,12.80
2023-05-12T05:24:38.757Z,12.80
2023-05-12T05:27:05.653Z,12.80
2023-05-12T05:29:32.323Z,12.80
2023-05-12T05:31:59.010Z,12.90
2023-05-12T05:34:26.053Z,12.90
2023-05-12T05:36:52.762Z,12.90
2023-05-12T05:39:19.455Z,13.00
2023-05-12T05:41:46.498Z,13.10
2023-05-12T05:44:13.854Z,13.20
2023-05-12T05:46:40.705Z,13.20
2023-05-12T05:49:07.522Z,13.10
2023-05-12T05:51:34.315Z,13.20
2023-05-12T05:54:01.009Z,13.20
2023-05-12T05:56:27.779Z,13.30
2023-05-12T05:58:54.579Z,13.30
2023-05-12T06:01:21.962Z,13.40
2023-05-12T06:03:49.128Z,13.50
2023-05-12T06:06:16.161Z,13.40
2023-05-12T06:08:42.853Z,13.30
2023-05-12T06:11:09.578Z,13.40
2023-05-12T06:13:37.950Z,13.50
2023-05-12T06:16:05.504Z,13.40
2023-05-12T06:18:37.574Z,13.40
2023-05-12T06:21:05.487Z,13.50
2023-05-12T06:23:32.467Z,13.40
2023-05-12T06:25:59.184Z,13.40
2023-05-12T06:28:27.775Z,13.50
2023-05-12T06:30:55.184Z,13.60
2023-05-12T06:33:22.329Z,13.70
2023-05-12T06:35:50.019Z,13.80
2023-05-12T06:38:16.792Z,13.80
2023-05-12T06:40:44.841Z,13.80
2023-05-12T06:43:11.908Z,13.90
2023-05-12T06:45:38.607Z,14.00
2023-05-12T06:48:09.306Z,14.10
2023-05-12T06:50:36.159Z,14.20
2023-05-12T06:53:03.491Z,14.10
2023-05-12T06:55:30.214Z,14.10
2023-05-12T06:57:56.885Z,14.10
2023-05-12T07:00:24.890Z,14.10
2023-05-12T07:02:52.071Z,14.20
2023-05-12T07:05:19.292Z,14.30
2023-05-12T07:07:46.529Z,14.50
2023-05-12T07:10:13.207Z,14.60
2023-05-12T07:12:40.166Z,14.80
2023-05-12T07:15:08.372Z,14.90
2023-05-12T07:17:35.319Z,15.00
2023-05-12T07:20:02.914Z,15.30
2023-05-12T07:22:29.895Z,15.30
2023-05-12T07:24:56.657Z,15.30
2023-05-12T07:27:23.277Z,15.40
2023-05-12T07:29:49.916Z,15.40
2023-05-12T07:32:16.608Z,15.30
2023-05-12T07:34:43.614Z,15.40
2023-05-12T07:37:10.283Z,15.50
2023-05-12T07:39:37.009Z,15.60
2023-05-12T07:42:03.893Z,15.60
2023-05-12T07:44:30.939Z,15.70
2023-05-12T07:46:57.631Z,15.70
2023-05-12T07:49:24.390Z,16.00
2023-05-12T07:51:51.188Z,16.10
2023-05-12T07:54:18.012Z,16.20
2023-05-12T07:56:44.999Z,16.40
2023-05-12T07:59:13.109Z,16.60
2023-05-12T08:01:40.044Z,16.50
2023-05-12T08:04:06.868Z,17.00
2023-05-12T08:06:33.751Z,17.30
2023-05-12T08:09:00.808Z,17.70
2023-05-12T08:11:27.604Z,18.10
2023-05-12T08:13:54.301Z,17.90
2023-05-12T08:16:20.994Z,17.80
2023-05-12T08:18:47.745Z,17.90
2023-05-12T08:21:14.469Z,18.10
2023-05-12T08:23:41.177Z,17.80
2023-05-12T08:26:07.900Z,17.60
2023-05-12T08:28:34.660Z,18.00
2023-05-12T08:31:04.719Z,18.00
2023-05-12T08:33:31.686Z,18.30
2023-05-12T08:35:58.470Z,18.30
2023-05-12T08:38:25.465Z,18.60
2023-05-12T08:41:23.264Z,18.20
2023-05-12T08:43:51.441Z,18.10
2023-05-12T08:46:18.697Z,18.60
2023-05-12T08:48:51.329Z,18.30
2023-05-12T08:51:19.852Z,18.60
2023-05-12T08:53:48.896Z,18.20
2023-05-12T08:58:49.710Z,18.30
2023-05-12T09:01:18.091Z,18.30
2023-05-12T09:03:45.046Z,18.30
2023-05-12T09:06:12.168Z,18.70
2023-05-12T09:08:40.967Z,19.10
2023-05-12T09:11:12.228Z,19.50
2023-05-12T09:14:01.121Z,19.40
2023-05-12T09:16:33.039Z,19.70
2023-05-12T09:19:03.990Z,20.30
2023-05-12T09:21:32.269Z,20.20
2023-05-12T09:24:05.800Z,19.70
2023-05-12T09:26:52.547Z,19.60
2023-05-12T09:29:28.367Z,20.10
2023-05-12T09:31:59.505Z,20.00
2023-05-12T09:34:36.903Z,19.70
2023-05-12T09:37:06.396Z,19.70
2023-05-12T09:39:34.467Z,20.10
2023-05-12T09:42:02.241Z,20.20
2023-05-12T09:44:29.848Z,19.70
2023-05-12T09:47:05.484Z,19.60
2023-05-12T09:49:32.163Z,19.60
2023-05-12T09:51:59.580Z,19.90
2023-05-12T09:54:30.901Z,20.30
2023-05-12T09:57:02.416Z,20.50
2023-05-12T09:59:33.919Z,20.50
2023-05-12T10:02:02.336Z,20.10
2023-05-12T10:04:32.716Z,20.50
2023-05-12T10:07:00.056Z,20.50
2023-05-12T10:09:36.057Z,20.80
2023-05-12T10:12:04.532Z,21.10
2023-05-12T10:14:31.650Z,20.90
2023-05-12T10:16:59.781Z,21.20
2023-05-12T10:19:28.540Z,22.20
2023-05-12T10:21:57.260Z,22.50
2023-05-12T10:24:27.682Z,22.00
2023-05-12T10:26:59.342Z,22.20
2023-05-12T10:29:30.424Z,22.50
2023-05-12T10:31:57.857Z,22.20
2023-05-12T10:34:32.648Z,22.00
2023-05-12T10:36:59.360Z,21.90
2023-05-12T10:39:33.300Z,22.30
2023-05-12T10:42:08.357Z,22.50
2023-05-12T10:44:38.419Z,23.10
2023-05-12T10:47:14.948Z,23.20
2023-05-12T10:49:42.256Z,22.40
2023-05-12T10:52:11.805Z,22.60
2023-05-12T10:54:44.625Z,22.50
2023-05-12T10:57:21.229Z,23.00
2023-05-12T11:00:03.540Z,23.40
2023-05-12T11:02:34.736Z,23.00
2023-05-12T11:05:06.641Z,22.70
2023-05-12T11:07:35.257Z,23.10
2023-05-12T11:10:05.283Z,23.20
2023-05-12T11:12:35.760Z,23.90
2023-05-12T11:15:04.518Z,23.90
2023-05-12T11:17:31.912Z,23.20
2023-05-12T11:20:00.349Z,23.50
2023-05-12T11:22:27.930Z,24.20
2023-05-12T11:24:54.724Z,24.00
2023-05-12T11:27:23.321Z,23.90
2023-05-12T11:29:58.582Z,23.70
2023-05-12T11:32:25.464Z,23.10
2023-05-12T11:34:52.613Z,23.10
2023-05-12T11:37:21.069Z,23.50
2023-05-12T11:39:48.384Z,24.00
2023-05-12T11:42:17.796Z,24.50
2023-05-12T11:44:50.470Z,24.40
2023-05-12T11:47:20.515Z,24.00
2023-05-12T11:49:52.030Z,23.30
2023-05-12T11:52:19.723Z,23.50
2023-05-12T11:54:57.339Z,23.00
2023-05-12T11:57:32.294Z,22.60
2023-05-12T12:00:07.900Z,23.00
2023-05-12T12:02:37.341Z,23.10
2023-05-12T12:05:05.827Z,22.50
2023-05-12T12:07:36.363Z,22.70
2023-05-12T12:10:17.259Z,22.30
2023-05-12T12:12:45.303Z,23.00
2023-05-12T12:15:13.009Z,23.00
2023-05-12T12:17:40.630Z,22.90
2023-05-12T12:20:09.213Z,22.60
2023-05-12T12:22:36.281Z,22.10
2023-05-12T12:25:03.979Z,21.70
2023-05-12T12:27:30.982Z,22.00
2023-05-12T12:29:57.936Z,22.60
2023-05-12T12:32:24.733Z,23.00
2023-05-12T12:34:51.871Z,23.50
2023-05-12T12:37:18.518Z,23.40
2023-05-12T12:39:45.675Z,23.20
2023-05-12T12:42:13.347Z,23.60
2023-05-12T12:44:40.096Z,24.10
2023-05-12T12:47:06.856Z,23.70
2023-05-12T12:49:33.614Z,23.70
2023-05-12T12:52:00.295Z,23.20
2023-05-12T12:54:28.318Z,23.50
2023-05-12T12:56:55.669Z,23.80
2023-05-12T12:59:22.652Z,23.40
2023-05-12T13:01:49.523Z,23.70
2023-05-12T13:04:19.521Z,23.50
2023-05-12T13:06:46.619Z,24.00
2023-05-12T13:09:13.883Z,24.40
2023-05-12T13:11:40.620Z,23.90
2023-05-12T13:14:08.170Z,23.90
2023-05-12T13:16:34.947Z,24.10
2023-05-12T13:19:02.466Z,24.40
2023-05-12T13:21:29.356Z,25.00
2023-05-12T13:23:56.013Z,24.90
2023-05-12T13:26:23.497Z,24.90
2023-05-12T13:28:50.237Z,24.70
2023-05-12T13:31:16.942Z,25.50
2023-05-12T13:33:43.721Z,26.00
2023-05-12T13:36:10.393Z,24.90
2023-05-12T13:38:37.237Z,25.20
2023-05-12T13:41:03.925Z,24.70
2023-05-12T13:43:30.665Z,25.00
2023-05-12T13:45:57.333Z,24.90
2023-05-12T13:48:24.001Z,24.90
2023-05-12T13:50:50.724Z,24.60
2023-05-12T13:53:17.404Z,24.90
2023-05-12T13:55:44.974Z,24.90
2023-05-12T13:58:11.592Z,26.00
2023-05-12T14:00:38.975Z,25.00
2023-05-12T14:03:05.698Z,24.70
2023-05-12T14:05:32.549Z,25.10
2023-05-12T14:07:59.366Z,25.00
2023-05-12T14:10:26.132Z,25.70
2023-05-12T14:12:52.840Z,25.40
2023-05-12T14:15:29.694Z,25.50
2023-05-12T14:17:59.974Z,25.40
2023-05-12T14:20:28.674Z,25.40
2023-05-12T14:22:55.682Z,25.80
2023-05-12T14:25:23.854Z,24.90
2023-05-12T14:27:50.979Z,25.30
2023-05-12T14:30:17.909Z,25.40
2023-05-12T14:32:51.149Z,25.60
2023-05-12T14:35:18.448Z,25.40
2023-05-12T14:37:45.102Z,25.20
2023-05-12T14:40:12.871Z,25.70
2023-05-12T14:42:39.714Z,25.00
2023-05-12T14:45:08.046Z,24.70
2023-05-12T14:47:34.881Z,25.50
2023-05-12T14:50:02.221Z,25.10
2023-05-12T14:52:28.966Z,25.00
2023-05-12T14:54:55.698Z,24.70
2023-05-12T14:57:22.391Z,24.70
2023-05-12T14:59:52.278Z,24.60
2023-05-12T15:02:19.015Z,24.60
2023-05-12T15:04:45.750Z,24.90
2023-05-12T15:07:12.360Z,25.30
2023-05-12T15:09:39.034Z,25.90
2023-05-12T15:12:06.061Z,24.80
2023-05-12T15:14:32.712Z,25.80
2023-05-12T15:16:59.444Z,24.90
2023-05-12T15:19:26.157Z,25.30
2023-05-12T15:21:52.809Z,26.00
2023-05-12T15:24:19.490Z,25.20
2023-05-12T15:26:46.229Z,24.60
2023-05-12T15:29:14.008Z,25.10
2023-05-12T15:31:40.784Z,24.80
2023-05-12T15:34:07.541Z,25.40
2023-05-12T15:36:34.219Z,25.30
2023-05-12T15:39:00.909Z,25.30
2023-05-12T15:41:27.843Z,24.50
2023-05-12T15:43:54.580Z,24.10
2023-05-12T15:46:21.775Z,24.00
2023-05-12T15:48:49.298Z,24.40
2023-05-12T15:51:16.994Z,24.30
2023-05-12T15:53:45.391Z,24.00
2023-05-12T15:56:12.270Z,24.00
2023-05-12T15:58:39.040Z,23.80
2023-05-12T16:01:06.585Z,23.20
2023-05-12T16:03:33.781Z,23.30
2023-05-12T16:06:00.578Z,23.10
2023-05-12T16:08:27.687Z,23.20
2023-05-12T16:10:54.430Z,23.70
2023-05-12T16:13:21.135Z,24.20
2023-05-12T16:15:50.516Z,24.30
2023-05-12T16:18:17.673Z,23.70
2023-05-12T16:20:46.966Z,23.60
2023-05-12T16:23:13.613Z,23.70
2023-05-12T16:25:41.892Z,23.50
2023-05-12T16:28:08.570Z,23.30
2023-05-12T16:30:35.279Z,23.00
2023-05-12T16:33:02.459Z,23.10
2023-05-12T16:35:29.890Z,23.30
2023-05-12T16:37:56.545Z,23.10
2023-05-12T16:40:23.434Z,22.90
2023-05-12T16:42:51.137Z,22.80
2023-05-12T16:45:18.672Z,23.00
2023-05-12T16:47:45.640Z,22.80
2023-05-12T16:50:12.458Z,22.50
2023-05-12T16:52:39.241Z,22.60
2023-05-12T16:55:06.822Z,22.70
2023-05-12T16:57:33.864Z,22.10
2023-05-12T17:00:03.257Z,22.20
2023-05-12T17:02:30.109Z,22.20
2023-05-12T17:04:56.943Z,22.00
2023-05-12T17:07:24.100Z,21.90
2023-05-12T17:09:50.887Z,22.00
2023-05-12T17:12:17.688Z,22.10
2023-05-12T17:14:46.187Z,21.90
2023-05-12T17:17:19.896Z,21.50
2023-05-12T17:19:47.315Z,21.30
2023-05-12T17:22:14.388Z,21.30
2023-05-12T17:24:41.179Z,21.30
2023-05-12T17:27:08.114Z,21.50
2023-05-12T17:29:34.867Z,21.60
2023-05-12T17:32:02.434Z,21.70
2023-05-12T17:34:29.192Z,21.70
2023-05-12T17:36:56.174Z,21.80
2023-05-12T17:39:22.901Z,21.50
2023-05-12T17:41:49.666Z,21.20
2023-05-12T17:44:16.415Z,21.10
2023-05-12T17:46:43.450Z,21.10
2023-05-12T17:49:10.201Z,21.10
2023-05-12T17:51:36.963Z,20.80
2023-05-12T17:54:04.004Z,20.60
2023-05-12T17:56:30.878Z,20.60
2023-05-12T17:58:58.183Z,20.60
2023-05-12T18:01:24.965Z,20.60
2023-05-12T18:03:52.338Z,20.60
2023-05-12T18:06:19.028Z,20.40
2023-05-12T18:08:46.517Z,20.30
2023-05-12T18:11:13.171Z,20.30
2023-05-12T18:13:39.912Z,20.30
2023-05-12T18:16:08.984Z,20.40
2023-05-12T18:18:42.228Z,20.30
2023-05-12T18:21:08.938Z,20.20
2023-05-12T18:23:35.756Z,20.20
2023-05-12T18:26:02.763Z,20.10
2023-05-12T18:28:29.403Z,20.00
2023-05-12T18:31:00.220Z,19.90
2023-05-12T18:33:29.863Z,19.70
2023-05-12T18:35:56.520Z,19.50
2023-05-12T18:38:23.178Z,19.40
2023-05-12T18:40:49.832Z,19.40
2023-05-12T18:43:16.527Z,19.30
2023-05-12T18:45:43.332Z,19.20
2023-05-12T18:48:10.088Z,19.10
2023-05-12T18:50:36.888Z,18.90
2023-05-12T18:53:03.573Z,18.80
2023-05-12T18:55:30.198Z,18.70
2023-05-12T18:57:56.867Z,18.50
2023-05-12T19:00:27.573Z,18.30
2023-05-12T19:02:54.495Z,18.20
2023-05-12T19:05:21.530Z,18.00
2023-05-12T19:07:48.453Z,17.90
2023-05-12T19:10:15.454Z,17.80
2023-05-12T19:12:42.314Z,17.70
2023-05-12T19:15:09.561Z,17.50
2023-05-12T19:17:36.439Z,17.50
2023-05-12T19:20:03.408Z,17.40
2023-05-12T19:22:30.582Z,17.30
2023-05-12T19:24:57.304Z,17.20
2023-05-12T19:27:24.703Z,17.00
2023-05-12T19:29:51.470Z,17.00
2023-05-12T19:32:18.195Z,16.80
2023-05-12T19:34:44.874Z,16.60
2023-05-12T19:37:12.040Z,16.50
2023-05-12T19:39:38.704Z,16.40
2023-05-12T19:42:05.682Z,16.30
2023-05-12T19:44:32.347Z,16.30
2023-05-12T19:47:04.415Z,16.20
2023-05-12T19:49:35.426Z,16.10
2023-05-12T19:52:04.228Z,16.00
2023-05-12T19:54:31.409Z,15.90
2023-05-12T19:56:58.249Z,15.80
2023-05-12T19:59:24.981Z,15.70
2023-05-12T20:01:51.699Z,15.60
2023-05-12T20:04:18.435Z,15.50
2023-05-12T20:06:45.093Z,15.40
2023-05-12T20:09:14.644Z,15.30
2023-05-12T20:11:41.654Z,15.20
2023-05-12T20:14:08.306Z,15.10
2023-05-12T20:16:34.992Z,15.20
2023-05-12T20:19:03.184Z,15.20
2023-05-12T20:21:31.399Z,15.10
2023-05-12T20:23:58.051Z,15.00
2023-05-12T20:26:24.737Z,14.90
2023-05-12T20:28:51.438Z,14.70
2023-05-12T20:31:18.717Z,14.60
2023-05-12T20:33:45.566Z,14.60
2023-05-12T20:36:12.255Z,14.50
2023-05-12T20:38:40.050Z,14.20
2023-05-12T20:41:07.809Z,14.20
2023-05-12T20:43:34.963Z,14.10
2023-05-12T20:46:05.489Z,14.10
2023-05-12T20:48:32.798Z,14.20
2023-05-12T20:50:59.593Z,14.20
2023-05-12T20:53:26.394Z,14.20
2023-05-12T20:55:53.067Z,14.10
2023-05-12T20:58:19.718Z,13.90
2023-05-12T21:00:46.477Z,13.90
2023-05-12T21:03:16.877Z,13.80
2023-05-12T21:05:47.670Z,13.70
2023-05-12T21:08:14.582Z,13.60
2023-05-12T21:10:41.410Z,13.50
2023-05-12T21:13:08.340Z,13.40
2023-05-12T21:15:35.391Z,13.40
2023-05-12T21:18:02.287Z,13.50
2023-05-12T21:20:28.974Z,13.40
2023-05-12T21:22:56.976Z,13.40
2023-05-12T21:25:24.048Z,13.30
2023-05-12T21:27:51.734Z,13.30
2023-05-12T21:30:18.757Z,13.30
2023-05-12T21:32:45.860Z,13.20
2023-05-12T21:35:12.714Z,13.10
2023-05-12T21:37:39.489Z,13.10
2023-05-12T21:40:06.905Z,12.90
2023-05-12T21:42:33.549Z,13.00
2023-05-12T21:45:00.232Z,12.90
2023-05-12T21:47:27.734Z,12.80
2023-05-12T21:49:55.136Z,12.80
2023-05-12T21:52:22.455Z,12.80
2023-05-12T21:54:49.323Z,12.60
2023-05-12T21:57:16.080Z,12.60
2023-05-12T21:59:42.716Z,12.50
2023-05-12T22:02:09.639Z,12.50
2023-05-12T22:04:36.427Z,12.40
2023-05-12T22:07:03.083Z,12.40
2023-05-12T22:09:31.301Z,12.40
2023-05-12T22:11:58.058Z,12.30
2023-05-12T22:14:24.838Z,12.20
2023-05-12T22:16:51.663Z,12.10
2023-05-12T22:19:19.527Z,12.10
2023-05-12T22:21:46.285Z,12.10
2023-05-12T22:24:12.960Z,12.10
2023-05-12T22:26:39.622Z,12.00
2023-05-12T22:29:06.309Z,11.90
2023-05-12T22:31:33.055Z,12.00
2023-05-12T22:33:59.810Z,12.00
2023-05-12T22:36:26.490Z,11.90
2023-05-12T22:38:53.158Z,11.80
2023-05-12T22:41:19.859Z,11.90
2023-05-12T22:43:46.481Z,11.90
2023-05-12T22:46:13.120Z,11.80
2023-05-12T22:48:39.904Z,11.70
2023-05-12T22:51:06.875Z,11.60
2023-05-12T22:53:41.288Z,11.60
2023-05-12T22:56:08.375Z,11.60
2023-05-12T22:58:35.047Z,11.60
2023-05-12T23:01:02.885Z,11.60
2023-05-12T23:03:29.931Z,11.60
2023-05-12T23:05:56.706Z,11.50
2023-05-12T23:08:23.369Z,11.60
2023-05-12T23:10:50.028Z,11.50
2023-05-12T23:13:16.818Z,11.40
2023-05-12T23:15:43.449Z,11.40
2023-05-12T23:18:10.194Z,11.40
2023-05-12T23:20:36.921Z,11.50
2023-05-12T23:23:03.677Z,11.50
2023-05-12T23:25:31.663Z,11.50
2023-05-12T23:27:58.366Z,11.50
2023-05-12T23:30:25.352Z,11.50
2023-05-12T23:32:52.157Z,11.50
2023-05-12T23:35:18.919Z,11.50
2023-05-12T23:37:45.565Z,11.30
2023-05-12T23:40:14.501Z,11.30
2023-05-12T23:42:41.389Z,11.30
2023-05-12T23:45:08.505Z,11.30
2023-05-12T23:47:35.241Z,11.30
2023-05-12T23:50:02.306Z,11.40
2023-05-12T23:52:29.062Z,11.40
2023-05-12T23:54:55.742Z,11.40
2023-05-12T23:57:22.430Z,11.40
2023-05-12T23:59:49.103Z,11.40
